createdAt,value
2017-04-14T00:00:52.500Z,0
2017-04-14T00:01:52.508Z,0
2017-04-14T00:02:52.565Z,0
2017-04-14T00:03:52.605Z,0
2017-04-14T00:04:52.662Z,0
2017-04-14T00:05:52.413Z,0
2017-04-14T00:06:52.765Z,0
2017-04-14T00:07:52.512Z,0
2017-04-14T00:08:52.873Z,0
2017-04-14T00:09:52.927Z,0
2017-04-14T00:10:52.973Z,0
2017-04-14T00:11:52.721Z,0
2017-04-14T00:12:53.081Z,0
2017-04-14T00:13:52.831Z,0
2017-04-14T00:14:53.182Z,0
2017-04-14T00:15:53.236Z,0
2017-04-14T00:16:53.288Z,0
2017-04-14T00:17:53.347Z,0
2017-04-14T00:18:53.586Z,0
2017-04-14T00:19:53.440Z,0
2017-04-14T00:20:53.189Z,0
2017-04-14T00:21:53.751Z,0
2017-04-14T00:22:53.596Z,0
2017-04-14T00:23:53.650Z,0
2017-04-14T00:24:53.700Z,0
2017-04-14T00:25:53.450Z,0
2017-04-14T00:26:53.808Z,0
2017-04-14T00:27:53.857Z,0
2017-04-14T00:28:53.904Z,0
2017-04-14T00:29:53.963Z,0
2017-04-14T00:30:54.015Z,0
2017-04-14T00:31:53.766Z,0
2017-04-14T00:32:54.122Z,0
2017-04-14T00:33:54.174Z,0
2017-04-14T00:34:54.231Z,0
2017-04-14T00:35:54.271Z,0
2017-04-14T00:36:54.317Z,0
2017-04-14T00:37:54.381Z,0
2017-04-14T00:38:54.428Z,0
2017-04-14T00:39:54.481Z,0
2017-04-14T00:40:54.537Z,0
2017-04-14T00:41:54.577Z,0
2017-04-14T00:42:54.639Z,0
2017-04-14T00:43:54.381Z,0
2017-04-14T00:44:54.478Z,0
2017-04-14T00:45:54.489Z,0
2017-04-14T00:46:54.844Z,0
2017-04-14T00:47:54.895Z,0
2017-04-14T00:48:54.940Z,0
2017-04-14T00:49:54.696Z,0
2017-04-14T00:50:54.745Z,0
2017-04-14T00:51:55.101Z,0
2017-04-14T00:52:55.157Z,0
2017-04-14T00:53:55.206Z,0
2017-04-14T00:54:54.654Z,0
2017-04-14T00:55:54.907Z,0
2017-04-14T00:56:55.568Z,0
2017-04-14T00:57:55.428Z,0
2017-04-14T00:58:55.461Z,0
2017-04-14T00:59:55.516Z,0
2017-04-14T01:00:55.567Z,0
2017-04-14T01:01:55.615Z,0
2017-04-14T01:02:55.671Z,0
2017-04-14T01:03:55.724Z,0
2017-04-14T01:04:55.772Z,0
2017-04-14T01:05:55.825Z,0
2017-04-14T01:06:55.878Z,0
2017-04-14T01:07:55.632Z,0
2017-04-14T01:08:55.680Z,0
2017-04-14T01:09:55.430Z,0
2017-04-14T01:10:55.479Z,0
2017-04-14T01:11:56.137Z,0
2017-04-14T01:12:56.190Z,0
2017-04-14T01:13:56.239Z,0
2017-04-14T01:14:56.290Z,0
2017-04-14T01:15:56.341Z,0
2017-04-14T01:16:56.400Z,0
2017-04-14T01:17:56.448Z,0
2017-04-14T01:18:56.198Z,0
2017-04-14T01:19:55.944Z,0
2017-04-14T01:20:56.596Z,0
2017-04-14T01:21:56.654Z,0
2017-04-14T01:22:56.707Z,0
2017-04-14T01:23:56.757Z,0
2017-04-14T01:24:56.808Z,0
2017-04-14T01:25:56.862Z,0
2017-04-14T01:26:56.909Z,0
2017-04-14T01:27:56.663Z,0
2017-04-14T01:28:57.017Z,0
2017-04-14T01:29:57.070Z,0
2017-04-14T01:30:57.121Z,0
2017-04-14T01:31:57.173Z,0
2017-04-14T01:32:56.685Z,0
2017-04-14T01:33:57.275Z,0
2017-04-14T01:34:57.327Z,0
2017-04-14T01:35:57.374Z,0
2017-04-14T01:36:57.430Z,0
2017-04-14T01:37:57.182Z,0
2017-04-14T01:38:57.561Z,0
2017-04-14T01:39:57.589Z,0
2017-04-14T01:40:57.639Z,0
2017-04-14T01:41:57.696Z,0
2017-04-14T01:42:57.741Z,0
2017-04-14T01:43:57.486Z,0
2017-04-14T01:44:57.845Z,0
2017-04-14T01:45:57.893Z,0
2017-04-14T01:46:57.945Z,0
2017-04-14T01:47:57.996Z,0
2017-04-14T01:48:58.047Z,0
2017-04-14T01:49:58.103Z,0
2017-04-14T01:50:58.152Z,0
2017-04-14T01:51:58.199Z,0
2017-04-14T01:52:58.255Z,0
2017-04-14T01:53:58.306Z,0
2017-04-14T01:54:58.057Z,0
2017-04-14T01:55:58.413Z,0
2017-04-14T01:56:58.469Z,0
2017-04-14T01:57:58.514Z,0
2017-04-14T01:58:58.264Z,0
2017-04-14T01:59:58.613Z,0
2017-04-14T02:00:58.663Z,0
2017-04-14T02:01:58.716Z,0
2017-04-14T02:02:58.775Z,0
2017-04-14T02:03:58.521Z,0
2017-04-14T02:04:58.870Z,0
2017-04-14T02:05:58.622Z,0
2017-04-14T02:06:58.973Z,0
2017-04-14T02:07:58.728Z,0
2017-04-14T02:08:59.083Z,0
2017-04-14T02:09:59.131Z,0
2017-04-14T02:10:58.879Z,0
2017-04-14T02:11:58.927Z,0
2017-04-14T02:12:59.289Z,0
2017-04-14T02:13:59.033Z,0
2017-04-14T02:14:59.091Z,0
2017-04-14T02:15:59.437Z,0
2017-04-14T02:16:59.187Z,0
2017-04-14T02:17:59.548Z,0
2017-04-14T02:18:59.597Z,0
2017-04-14T02:19:59.649Z,0
2017-04-14T02:20:59.698Z,0
2017-04-14T02:21:59.445Z,0
2017-04-14T02:22:59.812Z,0
2017-04-14T02:23:59.553Z,0
2017-04-14T02:24:59.907Z,0
2017-04-14T02:25:59.961Z,0
2017-04-14T02:27:00.008Z,0
2017-04-14T02:28:00.058Z,0
2017-04-14T02:29:00.114Z,0
2017-04-14T02:30:00.161Z,0
2017-04-14T02:31:00.257Z,0
2017-04-14T02:32:00.263Z,0
2017-04-14T02:33:00.321Z,0
2017-04-14T02:34:00.366Z,0
2017-04-14T02:35:00.424Z,0
2017-04-14T02:36:00.474Z,0
2017-04-14T02:37:00.522Z,0
2017-04-14T02:38:00.579Z,0
2017-04-14T02:39:00.331Z,0
2017-04-14T02:40:00.682Z,0
2017-04-14T02:41:00.730Z,0
2017-04-14T02:42:00.783Z,0
2017-04-14T02:43:00.835Z,0
2017-04-14T02:44:00.892Z,0
2017-04-14T02:45:00.934Z,0
2017-04-14T02:46:00.735Z,0
2017-04-14T02:47:01.039Z,0
2017-04-14T02:48:01.094Z,0
2017-04-14T02:49:01.152Z,0
2017-04-14T02:50:01.199Z,0
2017-04-14T02:51:01.257Z,0
2017-04-14T02:52:01.301Z,0
2017-04-14T02:53:01.350Z,0
2017-04-14T02:54:01.100Z,0
2017-04-14T02:55:01.153Z,0
2017-04-14T02:56:01.508Z,0
2017-04-14T02:57:01.559Z,0
2017-04-14T02:58:01.614Z,0
2017-04-14T02:59:01.664Z,0
2017-04-14T03:00:01.711Z,0
2017-04-14T03:01:01.760Z,0
2017-04-14T03:02:01.816Z,0
2017-04-14T03:03:01.868Z,0
2017-04-14T03:04:01.918Z,0
2017-04-14T03:05:01.976Z,0
2017-04-14T03:06:02.018Z,0
2017-04-14T03:07:02.075Z,0
2017-04-14T03:08:02.129Z,0
2017-04-14T03:09:02.186Z,0
2017-04-14T03:10:02.244Z,0
2017-04-14T03:11:02.284Z,0
2017-04-14T03:12:02.335Z,0
2017-04-14T03:13:02.390Z,0
2017-04-14T03:14:02.436Z,0
2017-04-14T03:15:02.483Z,0
2017-04-14T03:16:02.538Z,0
2017-04-14T03:17:02.591Z,0
2017-04-14T03:18:02.644Z,0
2017-04-14T03:19:02.694Z,0
2017-04-14T03:20:02.746Z,0
2017-04-14T03:21:02.797Z,0
2017-04-14T03:22:02.848Z,0
2017-04-14T03:23:02.906Z,0
2017-04-14T03:24:02.954Z,0
2017-04-14T03:25:02.999Z,0
2017-04-14T03:26:03.053Z,0
2017-04-14T03:27:03.108Z,0
2017-04-14T03:28:03.157Z,0
2017-04-14T03:29:03.207Z,0
2017-04-14T03:30:03.263Z,0
2017-04-14T03:31:03.311Z,0
2017-04-14T03:32:03.368Z,0
2017-04-14T03:33:03.414Z,0
2017-04-14T03:34:03.466Z,0
2017-04-14T03:35:03.517Z,0
2017-04-14T03:36:03.569Z,0
2017-04-14T03:37:03.620Z,0
2017-04-14T03:38:03.667Z,0
2017-04-14T03:39:03.766Z,0
2017-04-14T03:40:03.471Z,0
2017-04-14T03:41:03.822Z,0
2017-04-14T03:42:03.877Z,0
2017-04-14T03:43:03.931Z,0
2017-04-14T03:44:03.976Z,0
2017-04-14T03:45:04.028Z,0
2017-04-14T03:46:04.084Z,0
2017-04-14T03:47:04.133Z,0
2017-04-14T03:48:04.184Z,0
2017-04-14T03:49:04.238Z,0
2017-04-14T03:50:04.283Z,0
2017-04-14T03:51:04.336Z,0
2017-04-14T03:52:04.390Z,0
2017-04-14T03:53:04.441Z,0
2017-04-14T03:54:04.491Z,0
2017-04-14T03:55:04.241Z,0
2017-04-14T03:56:04.594Z,0
2017-04-14T03:57:04.652Z,0
2017-04-14T03:58:04.702Z,0
2017-04-14T03:59:04.745Z,0
2017-04-14T04:00:04.800Z,0
2017-04-14T04:01:04.846Z,0
2017-04-14T04:02:04.899Z,0
2017-04-14T04:03:04.953Z,0
2017-04-14T04:04:05.005Z,0
2017-04-14T04:05:05.057Z,0
2017-04-14T04:06:05.101Z,0
2017-04-14T04:07:05.155Z,4
2017-04-14T04:08:04.953Z,4
2017-04-14T04:09:05.262Z,0
2017-04-14T04:10:05.006Z,4
2017-04-14T04:11:05.365Z,4
2017-04-14T04:12:05.117Z,8
2017-04-14T04:13:05.464Z,4
2017-04-14T04:14:05.518Z,8
2017-04-14T04:15:05.571Z,8
2017-04-14T04:16:05.615Z,8
2017-04-14T04:17:05.676Z,12
2017-04-14T04:18:05.726Z,16
2017-04-14T04:19:05.774Z,20
2017-04-14T04:20:05.826Z,20
2017-04-14T04:21:05.878Z,20
2017-04-14T04:22:05.929Z,28
2017-04-14T04:23:05.978Z,32
2017-04-14T04:24:06.039Z,32
2017-04-14T04:25:05.785Z,40
2017-04-14T04:26:06.134Z,48
2017-04-14T04:27:06.189Z,52
2017-04-14T04:28:06.239Z,56
2017-04-14T04:29:06.287Z,64
2017-04-14T04:30:06.347Z,72
2017-04-14T04:31:06.388Z,84
2017-04-14T04:32:06.440Z,92
2017-04-14T04:33:06.498Z,100
2017-04-14T04:34:06.545Z,112
2017-04-14T04:35:06.597Z,120
2017-04-14T04:36:06.347Z,144
2017-04-14T04:37:06.701Z,152
2017-04-14T04:38:06.756Z,164
2017-04-14T04:39:06.807Z,172
2017-04-14T04:40:06.858Z,192
2017-04-14T04:41:06.908Z,216
2017-04-14T04:42:06.961Z,212
2017-04-14T04:43:07.009Z,244
2017-04-14T04:44:07.063Z,256
2017-04-14T04:45:07.116Z,256
2017-04-14T04:46:07.164Z,288
2017-04-14T04:47:07.216Z,332
2017-04-14T04:48:07.262Z,308
2017-04-14T04:49:07.320Z,308
2017-04-14T04:50:07.370Z,344
2017-04-14T04:51:07.422Z,384
2017-04-14T04:52:07.475Z,424
2017-04-14T04:53:07.525Z,412
2017-04-14T04:54:07.579Z,428
2017-04-14T04:55:07.623Z,444
2017-04-14T04:56:07.376Z,448
2017-04-14T04:57:07.731Z,464
2017-04-14T04:58:07.784Z,544
2017-04-14T04:59:07.529Z,624
2017-04-14T05:00:07.883Z,604
2017-04-14T05:01:07.937Z,628
2017-04-14T05:02:07.687Z,604
2017-04-14T05:03:08.039Z,580
2017-04-14T05:04:08.089Z,632
2017-04-14T05:05:08.137Z,664
2017-04-14T05:06:08.194Z,644
2017-04-14T05:07:08.242Z,684
2017-04-14T05:08:08.299Z,708
2017-04-14T05:09:08.350Z,692
2017-04-14T05:10:08.094Z,716
2017-04-14T05:11:08.447Z,720
2017-04-14T05:12:08.505Z,696
2017-04-14T05:13:08.555Z,696
2017-04-14T05:14:08.609Z,700
2017-04-14T05:15:08.663Z,756
2017-04-14T05:16:08.709Z,800
2017-04-14T05:17:08.760Z,772
2017-04-14T05:18:08.819Z,748
2017-04-14T05:19:08.866Z,764
2017-04-14T05:20:08.610Z,780
2017-04-14T05:21:08.964Z,812
2017-04-14T05:22:09.070Z,832
2017-04-14T05:23:09.076Z,828
2017-04-14T05:24:09.124Z,880
2017-04-14T05:25:09.174Z,964
2017-04-14T05:26:08.922Z,924
2017-04-14T05:27:09.274Z,892
2017-04-14T05:28:09.331Z,884
2017-04-14T05:29:09.381Z,884
2017-04-14T05:30:09.434Z,904
2017-04-14T05:31:09.481Z,928
2017-04-14T05:32:09.535Z,928
2017-04-14T05:33:09.588Z,952
2017-04-14T05:34:09.635Z,972
2017-04-14T05:35:09.690Z,988
2017-04-14T05:36:09.744Z,1020
2017-04-14T05:37:09.791Z,1016
2017-04-14T05:38:09.843Z,1004
2017-04-14T05:39:09.901Z,1080
2017-04-14T05:40:09.944Z,1044
2017-04-14T05:41:10.000Z,1028
2017-04-14T05:42:10.048Z,1032
2017-04-14T05:43:09.802Z,1040
2017-04-14T05:44:09.850Z,1056
2017-04-14T05:45:10.205Z,1072
2017-04-14T05:46:10.258Z,1088
2017-04-14T05:47:10.306Z,1100
2017-04-14T05:48:10.359Z,1100
2017-04-14T05:49:10.410Z,1096
2017-04-14T05:50:10.462Z,1108
2017-04-14T05:51:10.513Z,1124
2017-04-14T05:52:10.571Z,1144
2017-04-14T05:53:10.617Z,1236
2017-04-14T05:54:10.667Z,1236
2017-04-14T05:55:10.720Z,1192
2017-04-14T05:56:10.776Z,1196
2017-04-14T05:57:10.837Z,1240
2017-04-14T05:58:10.887Z,1248
2017-04-14T05:59:10.927Z,1240
2017-04-14T06:00:10.985Z,1232
2017-04-14T06:01:11.032Z,1228
2017-04-14T06:02:11.084Z,1232
2017-04-14T06:03:11.141Z,1252
2017-04-14T06:04:11.188Z,1304
2017-04-14T06:05:11.238Z,1332
2017-04-14T06:06:11.294Z,1288
2017-04-14T06:07:11.352Z,1280
2017-04-14T06:08:11.395Z,1284
2017-04-14T06:09:11.444Z,1312
2017-04-14T06:10:11.500Z,1320
2017-04-14T06:11:11.551Z,1380
2017-04-14T06:12:11.302Z,1504
2017-04-14T06:13:11.657Z,1460
2017-04-14T06:14:11.711Z,1396
2017-04-14T06:15:11.759Z,1424
2017-04-14T06:16:11.808Z,1600
2017-04-14T06:17:11.864Z,1936
2017-04-14T06:18:11.654Z,2112
2017-04-14T06:19:11.967Z,2152
2017-04-14T06:20:12.017Z,2260
2017-04-14T06:21:12.077Z,2048
2017-04-14T06:22:12.128Z,1948
2017-04-14T06:23:12.171Z,2204
2017-04-14T06:24:12.228Z,2180
2017-04-14T06:25:11.977Z,1832
2017-04-14T06:26:12.326Z,1816
2017-04-14T06:27:12.382Z,1868
2017-04-14T06:28:12.487Z,1800
2017-04-14T06:29:12.480Z,2252
2017-04-14T06:30:12.538Z,3152
2017-04-14T06:31:12.586Z,3504
2017-04-14T06:32:12.636Z,3180
2017-04-14T06:33:12.692Z,2948
2017-04-14T06:34:12.752Z,3444
2017-04-14T06:35:12.800Z,3460
2017-04-14T06:36:12.853Z,3396
2017-04-14T06:37:12.903Z,2820
2017-04-14T06:38:12.954Z,2400
2017-04-14T06:39:13.008Z,1844
2017-04-14T06:40:13.059Z,2356
2017-04-14T06:41:13.107Z,2172
2017-04-14T06:42:12.858Z,2068
2017-04-14T06:43:13.219Z,2348
2017-04-14T06:44:13.264Z,1832
2017-04-14T06:45:13.317Z,1744
2017-04-14T06:46:13.371Z,1848
2017-04-14T06:47:13.421Z,1696
2017-04-14T06:48:13.472Z,1784
2017-04-14T06:49:13.529Z,1760
2017-04-14T06:50:13.638Z,1788
2017-04-14T06:51:13.636Z,1952
2017-04-14T06:52:13.683Z,2548
2017-04-14T06:53:13.736Z,3464
2017-04-14T06:54:13.799Z,3916
2017-04-14T06:55:13.840Z,2980
2017-04-14T06:56:13.894Z,3848
2017-04-14T06:57:13.945Z,3612
2017-04-14T06:58:14.000Z,3244
2017-04-14T06:59:14.101Z,3616
2017-04-14T07:00:14.102Z,3752
2017-04-14T07:01:14.155Z,3080
2017-04-14T07:02:14.205Z,2644
2017-04-14T07:03:14.258Z,2740
2017-04-14T07:04:14.313Z,3116
2017-04-14T07:05:14.363Z,3344
2017-04-14T07:06:14.423Z,3056
2017-04-14T07:07:14.466Z,3024
2017-04-14T07:08:14.526Z,3012
2017-04-14T07:09:14.577Z,2776
2017-04-14T07:10:14.624Z,2784
2017-04-14T07:11:14.675Z,3188
2017-04-14T07:12:14.428Z,3348
2017-04-14T07:13:14.782Z,3904
2017-04-14T07:14:14.843Z,4008
2017-04-14T07:15:14.889Z,4364
2017-04-14T07:16:14.941Z,4372
2017-04-14T07:17:14.990Z,3912
2017-04-14T07:18:14.743Z,3884
2017-04-14T07:19:15.096Z,3496
2017-04-14T07:20:15.151Z,4148
2017-04-14T07:21:15.200Z,4236
2017-04-14T07:22:15.251Z,4444
2017-04-14T07:23:15.305Z,4748
2017-04-14T07:24:15.358Z,4624
2017-04-14T07:25:15.417Z,4600
2017-04-14T07:26:15.461Z,3628
2017-04-14T07:27:15.514Z,4080
2017-04-14T07:28:15.570Z,4060
2017-04-14T07:29:15.629Z,4132
2017-04-14T07:30:15.674Z,3700
2017-04-14T07:31:15.726Z,5320
2017-04-14T07:32:15.786Z,5096
2017-04-14T07:33:15.839Z,3620
2017-04-14T07:34:15.889Z,3928
2017-04-14T07:35:15.943Z,4868
2017-04-14T07:36:15.693Z,4928
2017-04-14T07:37:15.742Z,5352
2017-04-14T07:38:16.100Z,5024
2017-04-14T07:39:16.152Z,4716
2017-04-14T07:40:16.210Z,4188
2017-04-14T07:41:16.259Z,5008
2017-04-14T07:42:16.311Z,4576
2017-04-14T07:43:16.370Z,4684
2017-04-14T07:44:16.415Z,5112
2017-04-14T07:45:16.467Z,4420
2017-04-14T07:46:16.222Z,5040
2017-04-14T07:47:16.577Z,5484
2017-04-14T07:48:16.631Z,5028
2017-04-14T07:49:16.684Z,5652
2017-04-14T07:50:16.134Z,4340
2017-04-14T07:51:16.792Z,5100
2017-04-14T07:52:16.847Z,4864
2017-04-14T07:53:16.898Z,6064
2017-04-14T07:54:16.951Z,6148
2017-04-14T07:55:17.004Z,5148
2017-04-14T07:56:17.059Z,4764
2017-04-14T07:57:17.109Z,4864
2017-04-14T07:58:17.166Z,6168
2017-04-14T07:59:17.221Z,4596
2017-04-14T08:00:17.276Z,4668
2017-04-14T08:01:17.324Z,5464
2017-04-14T08:02:17.378Z,5416
2017-04-14T08:03:17.433Z,4616
2017-04-14T08:04:17.488Z,5132
2017-04-14T08:05:17.544Z,4996
2017-04-14T08:06:17.589Z,7620
2017-04-14T08:07:17.649Z,4612
2017-04-14T08:08:17.704Z,4784
2017-04-14T08:09:17.756Z,6376
2017-04-14T08:10:17.809Z,7104
2017-04-14T08:11:17.864Z,5852
2017-04-14T08:12:17.315Z,5724
2017-04-14T08:13:17.987Z,6272
2017-04-14T08:14:18.026Z,5884
2017-04-14T08:15:18.080Z,6332
2017-04-14T08:16:18.139Z,5140
2017-04-14T08:17:18.190Z,5264
2017-04-14T08:18:18.248Z,5828
2017-04-14T08:19:17.998Z,7216
2017-04-14T08:20:18.357Z,5376
2017-04-14T08:21:18.411Z,5980
2017-04-14T08:22:18.462Z,5252
2017-04-14T08:23:18.517Z,5900
2017-04-14T08:24:18.572Z,6212
2017-04-14T08:25:18.631Z,6032
2017-04-14T08:26:18.685Z,6312
2017-04-14T08:27:18.737Z,5308
2017-04-14T08:28:18.796Z,5536
2017-04-14T08:29:18.847Z,5884
2017-04-14T08:30:18.602Z,5544
2017-04-14T08:31:18.956Z,6596
2017-04-14T08:32:19.015Z,6096
2017-04-14T08:33:19.067Z,6164
2017-04-14T08:34:19.128Z,5496
2017-04-14T08:35:19.190Z,5464
2017-04-14T08:36:19.237Z,5656
2017-04-14T08:37:19.285Z,6580
2017-04-14T08:38:19.355Z,7288
2017-04-14T08:39:19.403Z,7472
2017-04-14T08:40:19.151Z,7804
2017-04-14T08:41:19.514Z,5004
2017-04-14T08:42:19.571Z,7884
2017-04-14T08:43:19.670Z,9352
2017-04-14T08:44:19.674Z,8544
2017-04-14T08:45:19.732Z,7564
2017-04-14T08:46:19.790Z,8036
2017-04-14T08:47:19.837Z,6784
2017-04-14T08:48:19.895Z,8512
2017-04-14T08:49:19.952Z,7072
2017-04-14T08:50:19.707Z,8184
2017-04-14T08:51:20.059Z,8088
2017-04-14T08:52:20.118Z,8436
2017-04-14T08:53:20.173Z,10404
2017-04-14T08:54:20.229Z,10908
2017-04-14T08:55:19.983Z,11892
2017-04-14T08:56:20.341Z,11128
2017-04-14T08:57:20.396Z,9068
2017-04-14T08:58:20.451Z,9580
2017-04-14T08:59:20.506Z,9536
2017-04-14T09:00:20.563Z,7692
2017-04-14T09:01:20.618Z,9940
2017-04-14T09:02:20.676Z,13464
2017-04-14T09:03:20.732Z,14344
2017-04-14T09:04:20.783Z,9672
2017-04-14T09:05:20.840Z,11404
2017-04-14T09:06:20.900Z,8288
2017-04-14T09:07:20.950Z,9912
2017-04-14T09:08:21.005Z,9528
2017-04-14T09:09:21.062Z,7888
2017-04-14T09:10:21.125Z,8952
2017-04-14T09:11:21.179Z,11456
2017-04-14T09:12:21.237Z,10516
2017-04-14T09:13:21.289Z,12596
2017-04-14T09:14:21.343Z,10100
2017-04-14T09:15:21.396Z,12592
2017-04-14T09:16:21.457Z,12708
2017-04-14T09:17:21.519Z,7604
2017-04-14T09:18:21.570Z,11820
2017-04-14T09:19:21.625Z,10116
2017-04-14T09:20:21.682Z,9688
2017-04-14T09:21:21.741Z,10604
2017-04-14T09:22:21.493Z,9092
2017-04-14T09:23:21.846Z,10604
2017-04-14T09:24:21.602Z,10844
2017-04-14T09:25:21.958Z,11512
2017-04-14T09:26:22.014Z,8408
2017-04-14T09:27:22.072Z,9660
2017-04-14T09:28:22.127Z,11672
2017-04-14T09:29:22.183Z,9792
2017-04-14T09:30:22.235Z,8296
2017-04-14T09:31:22.294Z,9236
2017-04-14T09:32:22.355Z,12420
2017-04-14T09:33:22.406Z,11116
2017-04-14T09:34:22.464Z,11912
2017-04-14T09:35:22.519Z,9668
2017-04-14T09:36:22.575Z,7108
2017-04-14T09:37:22.630Z,11560
2017-04-14T09:38:22.688Z,12664
2017-04-14T09:39:22.744Z,6904
2017-04-14T09:40:22.795Z,10244
2017-04-14T09:41:22.851Z,6984
2017-04-14T09:42:22.907Z,11772
2017-04-14T09:43:22.968Z,7880
2017-04-14T09:44:23.021Z,7644
2017-04-14T09:45:23.079Z,11228
2017-04-14T09:46:23.130Z,10408
2017-04-14T09:47:23.188Z,9584
2017-04-14T09:48:23.244Z,12888
2017-04-14T09:49:23.298Z,9892
2017-04-14T09:50:23.349Z,10708
2017-04-14T09:51:23.412Z,6836
2017-04-14T09:52:23.512Z,9596
2017-04-14T09:53:23.531Z,7916
2017-04-14T09:54:23.584Z,13892
2017-04-14T09:55:23.629Z,12048
2017-04-14T09:56:23.691Z,7568
2017-04-14T09:57:23.745Z,9824
2017-04-14T09:58:23.803Z,7244
2017-04-14T09:59:23.558Z,11128
2017-04-14T10:00:23.911Z,13356
2017-04-14T10:01:23.970Z,8156
2017-04-14T10:02:24.025Z,6740
2017-04-14T10:03:24.084Z,8056
2017-04-14T10:04:23.833Z,15908
2017-04-14T10:05:23.891Z,8132
2017-04-14T10:06:24.248Z,11472
2017-04-14T10:07:24.304Z,13508
2017-04-14T10:08:24.360Z,12740
2017-04-14T10:09:24.414Z,13072
2017-04-14T10:10:24.471Z,9568
2017-04-14T10:11:24.526Z,12628
2017-04-14T10:12:24.586Z,9924
2017-04-14T10:13:24.640Z,10612
2017-04-14T10:14:24.698Z,13116
2017-04-14T10:15:24.748Z,7216
2017-04-14T10:16:24.806Z,11272
2017-04-14T10:17:24.860Z,11600
2017-04-14T10:18:24.920Z,11136
2017-04-14T10:19:24.978Z,9720
2017-04-14T10:20:25.029Z,11544
2017-04-14T10:21:25.089Z,10768
2017-04-14T10:22:25.146Z,10388
2017-04-14T10:23:25.200Z,10368
2017-04-14T10:24:25.254Z,7036
2017-04-14T10:25:25.310Z,7996
2017-04-14T10:26:25.370Z,10244
2017-04-14T10:27:25.426Z,13620
2017-04-14T10:28:25.479Z,12220
2017-04-14T10:29:25.543Z,7448
2017-04-14T10:30:25.592Z,9420
2017-04-14T10:31:25.645Z,8256
2017-04-14T10:32:25.702Z,7528
2017-04-14T10:33:25.764Z,7272
2017-04-14T10:34:25.817Z,7628
2017-04-14T10:35:25.868Z,9500
2017-04-14T10:36:25.928Z,10664
2017-04-14T10:37:25.982Z,9536
2017-04-14T10:38:26.041Z,7648
2017-04-14T10:39:26.094Z,7484
2017-04-14T10:40:26.152Z,10612
2017-04-14T10:41:26.210Z,9952
2017-04-14T10:42:26.262Z,6684
2017-04-14T10:43:26.315Z,8812
2017-04-14T10:44:26.078Z,9156
2017-04-14T10:45:26.427Z,8200
2017-04-14T10:46:26.488Z,7740
2017-04-14T10:47:26.541Z,12220
2017-04-14T10:48:26.601Z,9376
2017-04-14T10:49:26.654Z,14264
2017-04-14T10:50:26.403Z,10596
2017-04-14T10:51:26.765Z,11012
2017-04-14T10:52:26.819Z,12768
2017-04-14T10:53:26.879Z,9564
2017-04-14T10:54:26.928Z,12268
2017-04-14T10:55:26.987Z,10724
2017-04-14T10:56:27.056Z,8028
2017-04-14T10:57:27.097Z,10072
2017-04-14T10:58:26.855Z,6124
2017-04-14T10:59:27.219Z,7660
2017-04-14T11:00:27.269Z,6660
2017-04-14T11:01:27.369Z,7892
2017-04-14T11:02:27.379Z,8432
2017-04-14T11:03:27.437Z,7732
2017-04-14T11:04:27.485Z,7648
2017-04-14T11:05:27.292Z,9460
2017-04-14T11:06:27.600Z,6868
2017-04-14T11:07:27.657Z,6368
2017-04-14T11:08:27.707Z,6472
2017-04-14T11:09:27.771Z,6028
2017-04-14T11:10:27.824Z,6052
2017-04-14T11:11:27.878Z,5784
2017-04-14T11:12:27.642Z,6228
2017-04-14T11:13:27.995Z,6540
2017-04-14T11:14:28.047Z,8508
2017-04-14T11:15:28.101Z,7224
2017-04-14T11:16:28.159Z,8068
2017-04-14T11:17:28.216Z,8996
2017-04-14T11:18:28.271Z,7764
2017-04-14T11:19:28.372Z,5960
2017-04-14T11:20:28.384Z,5712
2017-04-14T11:21:28.434Z,5612
2017-04-14T11:22:28.493Z,6972
2017-04-14T11:23:28.548Z,6488
2017-04-14T11:24:28.604Z,7384
2017-04-14T11:25:28.657Z,8200
2017-04-14T11:26:28.427Z,8840
2017-04-14T11:27:28.769Z,6616
2017-04-14T11:28:28.825Z,6856
2017-04-14T11:29:28.886Z,9112
2017-04-14T11:30:28.935Z,6536
2017-04-14T11:31:29.033Z,5916
2017-04-14T11:32:29.049Z,7764
2017-04-14T11:33:29.102Z,7812
2017-04-14T11:34:29.163Z,9456
2017-04-14T11:35:29.216Z,6160
2017-04-14T11:36:29.268Z,7204
2017-04-14T11:37:29.327Z,6752
2017-04-14T11:38:29.389Z,5032
2017-04-14T11:39:29.442Z,5328
2017-04-14T11:40:29.489Z,6148
2017-04-14T11:41:29.244Z,6204
2017-04-14T11:42:29.606Z,5836
2017-04-14T11:43:29.659Z,6328
2017-04-14T11:44:29.716Z,7548
2017-04-14T11:45:29.771Z,7416
2017-04-14T11:46:29.823Z,10012
2017-04-14T11:47:29.882Z,5356
2017-04-14T11:48:29.938Z,5248
2017-04-14T11:49:30.001Z,4916
2017-04-14T11:50:30.049Z,5224
2017-04-14T11:51:30.102Z,5584
2017-04-14T11:52:30.358Z,6312
2017-04-14T11:53:30.218Z,6508
2017-04-14T11:54:30.272Z,6740
2017-04-14T11:55:30.342Z,6232
2017-04-14T11:56:30.384Z,5636
2017-04-14T11:57:30.440Z,6008
2017-04-14T11:58:30.492Z,6560
2017-04-14T11:59:30.548Z,6372
2017-04-14T12:00:30.603Z,7156
2017-04-14T12:01:30.660Z,6492
2017-04-14T12:02:30.715Z,6716
2017-04-14T12:03:30.766Z,7404
2017-04-14T12:04:30.825Z,5920
2017-04-14T12:05:30.879Z,6900
2017-04-14T12:06:30.938Z,7244
2017-04-14T12:07:30.995Z,5700
2017-04-14T12:08:31.045Z,6080
2017-04-14T12:09:31.105Z,6904
2017-04-14T12:10:31.156Z,6976
2017-04-14T12:11:31.212Z,7596
2017-04-14T12:12:31.265Z,5740
2017-04-14T12:13:31.322Z,6268
2017-04-14T12:14:31.125Z,6480
2017-04-14T12:15:31.436Z,4352
2017-04-14T12:16:31.491Z,4828
2017-04-14T12:17:31.751Z,4976
2017-04-14T12:18:31.599Z,5452
2017-04-14T12:19:31.657Z,6996
2017-04-14T12:20:31.713Z,7472
2017-04-14T12:21:31.967Z,6912
2017-04-14T12:22:31.883Z,6352
2017-04-14T12:23:31.876Z,5304
2017-04-14T12:24:31.935Z,5684
2017-04-14T12:25:31.986Z,4800
2017-04-14T12:26:32.043Z,5724
2017-04-14T12:27:32.101Z,5444
2017-04-14T12:28:32.159Z,5176
2017-04-14T12:29:32.206Z,4540
2017-04-14T12:30:32.263Z,7292
2017-04-14T12:31:32.523Z,5296
2017-04-14T12:32:32.380Z,6380
2017-04-14T12:33:32.433Z,8080
2017-04-14T12:34:32.490Z,7480
2017-04-14T12:35:32.547Z,5520
2017-04-14T12:36:32.597Z,7468
2017-04-14T12:37:32.652Z,6216
2017-04-14T12:38:32.713Z,6384
2017-04-14T12:39:32.771Z,6172
2017-04-14T12:40:32.518Z,4796
2017-04-14T12:41:32.883Z,4708
2017-04-14T12:42:32.934Z,5408
2017-04-14T12:43:32.983Z,5164
2017-04-14T12:44:33.046Z,6532
2017-04-14T12:45:33.105Z,5576
2017-04-14T12:46:33.157Z,6400
2017-04-14T12:47:33.212Z,6936
2017-04-14T12:48:33.264Z,4896
2017-04-14T12:49:33.353Z,6480
2017-04-14T12:50:33.390Z,5536
2017-04-14T12:51:33.433Z,5624
2017-04-14T12:52:33.484Z,7464
2017-04-14T12:53:33.541Z,5348
2017-04-14T12:54:33.595Z,5184
2017-04-14T12:55:33.862Z,4524
2017-04-14T12:56:33.704Z,4832
2017-04-14T12:57:33.764Z,5460
2017-04-14T12:58:33.820Z,5676
2017-04-14T12:59:33.873Z,5028
2017-04-14T13:00:33.933Z,5104
2017-04-14T13:01:33.980Z,4944
2017-04-14T13:02:34.043Z,4264
2017-04-14T13:03:34.097Z,4408
2017-04-14T13:04:34.157Z,4320
2017-04-14T13:05:34.202Z,5324
2017-04-14T13:06:34.261Z,6556
2017-04-14T13:07:34.322Z,8120
2017-04-14T13:08:34.374Z,7468
2017-04-14T13:09:34.429Z,5540
2017-04-14T13:10:34.185Z,6060
2017-04-14T13:11:34.242Z,4244
2017-04-14T13:12:34.597Z,3704
2017-04-14T13:13:34.651Z,4504
2017-04-14T13:14:34.707Z,7192
2017-04-14T13:15:34.762Z,6272
2017-04-14T13:16:34.854Z,5924
2017-04-14T13:17:34.873Z,6440
2017-04-14T13:18:34.924Z,5968
2017-04-14T13:19:34.984Z,3724
2017-04-14T13:20:35.034Z,4768
2017-04-14T13:21:35.092Z,5728
2017-04-14T13:22:35.154Z,6800
2017-04-14T13:23:35.203Z,4584
2017-04-14T13:24:35.257Z,4400
2017-04-14T13:25:48.697Z,4504
2017-04-14T13:26:35.369Z,5888
2017-04-14T13:27:35.420Z,4308
2017-04-14T13:28:35.482Z,5440
2017-04-14T13:29:35.539Z,6408
2017-04-14T13:30:49.239Z,6104
2017-04-14T13:31:35.642Z,4136
2017-04-14T13:32:35.700Z,4716
2017-04-14T13:33:35.749Z,2740
2017-04-14T13:34:35.809Z,5376
2017-04-14T13:35:36.069Z,3948
2017-04-14T13:36:35.919Z,5940
2017-04-14T13:37:35.976Z,3592
2017-04-14T13:38:35.730Z,2768
2017-04-14T13:39:36.086Z,2736
2017-04-14T13:40:36.137Z,4264
2017-04-14T13:41:36.198Z,7468
2017-04-14T13:42:35.945Z,2528
2017-04-14T13:43:36.308Z,2956
2017-04-14T13:44:36.363Z,3268
2017-04-14T13:45:36.420Z,4732
2017-04-14T13:46:36.469Z,4432